Cuyuna, Minnesota
Current Conditions -  °F | °C
As of 7:13 AM on Sunday 21 Dec 2014 (Local Time) from KAIT Reporting Station
Haze Haze  
Wind Chill: 26°   Ceiling: 400
Heat Index: 32°   Visibility: 2.5mi
Dew Point: 27°   Wind: 7mph
Humidity: 80%   Direction: 160°SSE
Pressure: 29.85"   Gusts: NA
Location:  46.4516°N, 93.8664°W
Report Text: KAIT 211313Z AUTO 16006KT 2 1/2SM HZ OVC004 00/M03 A2985 RMK AO2
Loading
Personal Weather Stations






























Interactive Weather Map New forecast layout! Learn more

10-Day Weather Forecast

Advertisements
Track Severe Weather on mobile